航空気象通報

ウインドサーファーのための航空気象通報による風予報です。

5/19-5/21の航空気象通報

2017年05月19日 22時20分26秒 | TAF
羽田空港
TAF RJTT 191105Z 1912/2018 19016KT 9999 FEW030
BECMG 1917/1919 35004KT
BECMG 1922/2000 12006KT
BECMG 2000/2003 18018KT
BECMG 2015/2018 19006KT
日本時間19日21時-20日02時:190度から16ノットの風
02-04時:風が変化
04-07時:350度から4ノットの風
07-09時:風が変化
09時:120度から6ノットの風
09-12時:風が変化
12-24時:180度から18ノットの風
21日00-03時:190度から6ノットの風


静岡空港
TAF RJNS 191106Z 1912/2018 28004KT 9999 FEW020
TEMPO 1913/1916 4000 BR
BECMG 2000/2003 22010KT
BECMG 2012/2015 28004KT
TEMPO 2015/2018 FEW003 BKN005
日本時間19日21時-20日09時:280度から4ノットの風
09-12時:風が変化
12-21時:220度から10ノットの風
21-24時:風が変化
21日00-03時:280度から4ノットの風

但し、21日00-03時の間:ときどき

福岡空港
TAF RJFF 191106Z 1912/2018 01004KT 9999 FEW040
BECMG 1913/1915 15005KT
BECMG 2000/2003 32007KT
BECMG 2012/2015 15006KT
日本時間19日21-22時:010度から4ノットの風
22-24時:風が変化
20日00-09時:150度から5ノットの風
09-12時:風が変化
12-21時:320度から7ノットの風
21-24時:風が変化
21日00-03時:150度から6ノットの風


那覇空港
TAF ROAH 191105Z 1912/2018 10008KT 9999 FEW025
日本時間19日21時-21日03時:100度から8ノットの風


石垣空港
TAF ROIG 191110Z 1912/2018 09012KT 9999 FEW010 BKN020
TEMPO 2000/2006 4000 SHRA FEW006 BKN008
TEMPO 2006/2012 3000 +SHRA FEW006 BKN008 FEW020CB
日本時間19日21時-21日03時:090度から12ノットの風

但し、20日09-21時の間:ときどき

マウイのカフルイ空港
PHOG 191132Z 1912/2012 VRB03KT P6SM FEW050
FM192000 04014G24KT P6SM FEW040 SCT050
FM200100 04012G20KT P6SM VCSH SCT030 BKN050 AMD LTD TO VIS AND WIND TIL 191600
ハワイ時間19日02-10時:風向不定3ノットの風
10-15時:040度から14ノット、突風24ノット

15時-20日02時:040度から12ノット、突風20ノット


サイパン空港
TAF PGSN 191125Z 1912/2012 07011KT P6SM VCSH FEW020 SCT120
FM192300 08014G20KT P6SM VCSH FEW020 SCT050
マリアナ時間19日22時-20日09時:070度から11ノットの風
09-22時:080度から14ノット、突風20ノット

ジャンル:
お天気
コメント   この記事についてブログを書く
この記事をはてなブックマークに追加
« 5/18-5/20の航空気象通報 | トップ | 5/20-5/22の航空気象通報 »
最近の画像もっと見る

コメントを投稿

ブログ作成者から承認されるまでコメントは反映されません。

コメント利用規約に同意の上コメント投稿を行ってください。

数字4桁を入力し、投稿ボタンを押してください。

あわせて読む

トラックバック

この記事のトラックバック  Ping-URL
ブログ作成者から承認されるまでトラックバックは反映されません。
  • 30日以上前の記事に対するトラックバックは受け取らないよう設定されております。
  • 送信元の記事内容が半角英数のみのトラックバックは受け取らないよう設定されております。
  • このブログへのリンクがない記事からのトラックバックは受け取らないよう設定されております。
  • ※ブログ管理者のみ、編集画面で設定の変更が可能です。